Time;durP1;ratioP1;P1;durP2;ratioP2;P2;SDS_P1;SDS_P2;PMS_P1;PMS_P2;Temp;Humidity;BMP_temperature;BMP_pressure;BME280_temperature;BME280_humidity;BME280_pressure;Samples;Min_cycle;Max_cycle;Signal;HPM_P1;HPM_P2
2021/12/23 00:02:22;;;;;;;56.13;25.38;;;;;;;2.09;100.00;99626.63;5095285;28;20063;-95
2021/12/23 00:04:48;;;;;;;53.03;25.30;;;;;;;1.93;100.00;99605.31;5095313;28;20040;-94
2021/12/23 00:07:15;;;;;;;50.03;23.33;;;;;;;1.83;100.00;99609.47;5094202;28;20090;-93
2021/12/23 00:12:43;;;;;;;56.25;28.58;;;;;;;1.80;100.00;99619.91;5115386;27;20395;-93
2021/12/23 00:24:27;;;;;;;44.35;22.10;;;;;;;1.59;100.00;99637.78;5116873;27;20400;-95
2021/12/23 00:26:53;;;;;;;47.75;21.98;;;;;;;1.57;100.00;99629.88;5112746;28;20075;-93
2021/12/23 00:29:19;;;;;;;51.67;23.65;;;;;;;1.43;100.00;99620.81;5115323;28;20043;-95
2021/12/23 00:31:45;;;;;;;62.17;25.75;;;;;;;1.48;100.00;99639.28;5116668;28;20040;-94
2021/12/23 00:34:12;;;;;;;55.00;23.20;;;;;;;1.43;100.00;99637.44;5115201;28;20065;-93
2021/12/23 00:36:40;;;;;;;45.30;20.50;;;;;;;1.44;100.00;99628.72;5114553;28;20088;-93
2021/12/23 00:39:09;;;;;;;51.42;21.75;;;;;;;1.20;100.00;99597.59;5115142;28;20039;-94
2021/12/23 00:41:40;;;;;;;52.72;23.33;;;;;;;1.38;100.00;99633.81;5116097;28;20047;-96
2021/12/23 00:44:06;;;;;;;48.13;22.35;;;;;;;1.26;100.00;99607.34;5114953;28;20059;-93
2021/12/23 00:46:32;;;;;;;50.35;21.65;;;;;;;1.36;100.00;99622.41;5113382;28;20075;-93
2021/12/23 00:48:58;;;;;;;38.78;18.88;;;;;;;1.38;100.00;99627.69;5112398;28;20040;-94
2021/12/23 00:51:24;;;;;;;40.22;19.35;;;;;;;1.36;100.00;99609.28;5112532;28;20131;-94
2021/12/23 00:53:53;;;;;;;42.45;20.13;;;;;;;1.34;100.00;99590.03;5112761;28;20169;-94
2021/12/23 00:56:19;;;;;;;46.17;20.27;;;;;;;1.39;100.00;99613.75;5113168;28;20047;-94
2021/12/23 00:58:47;;;;;;;50.75;21.48;;;;;;;1.34;100.00;99610.13;5113043;28;20427;-94
2021/12/23 01:01:13;;;;;;;53.03;21.70;;;;;;;1.37;100.00;99621.56;5112614;28;20054;-93
2021/12/23 01:03:39;;;;;;;47.45;21.48;;;;;;;1.47;100.00;99632.25;5112308;28;20074;-95
2021/12/23 01:06:05;;;;;;;54.47;24.15;;;;;;;1.47;100.00;99629.63;5112355;28;20100;-95
2021/12/23 01:08:30;;;;;;;54.63;23.15;;;;;;;1.48;100.00;99631.41;5112699;28;20049;-93
2021/12/23 01:10:59;;;;;;;58.42;27.83;;;;;;;1.42;100.00;99608.56;5113132;28;20436;-94
2021/12/23 01:13:27;;;;;;;63.50;30.25;;;;;;;1.62;100.00;99637.84;5113261;28;20043;-94
2021/12/23 01:18:57;;;;;;;60.53;29.23;;;;;;;1.55;100.00;99625.47;5133374;27;20379;-94
2021/12/23 01:21:22;;;;;;;63.57;29.67;;;;;;;1.62;100.00;99619.50;5133147;28;20120;-94
2021/12/23 01:23:52;;;;;;;67.65;29.95;;;;;;;1.50;100.00;99595.66;5133468;28;20280;-95
2021/12/23 01:26:21;;;;;;;67.03;30.67;;;;;;;1.53;100.00;99600.94;5133403;28;20541;-95
2021/12/23 01:28:53;;;;;;;68.32;30.10;;;;;;;1.71;100.00;99637.16;5133250;28;20401;-93
2021/12/23 01:31:22;;;;;;;65.32;30.35;;;;;;;1.51;100.00;99600.03;5134207;28;20097;-93
2021/12/23 01:33:48;;;;;;;73.75;33.45;;;;;;;1.54;100.00;99597.47;5133540;28;20100;-94
2021/12/23 01:36:16;;;;;;;74.72;32.90;;;;;;;1.51;100.00;99598.28;5133719;28;20047;-94
2021/12/23 01:38:42;;;;;;;69.25;31.90;;;;;;;1.61;100.00;99625.59;5134109;28;20047;-94
2021/12/23 01:41:08;;;;;;;64.13;27.67;;;;;;;1.52;100.00;99609.66;5134689;28;20485;-94
2021/12/23 01:43:34;;;;;;;60.33;27.42;;;;;;;1.61;100.00;99631.72;5134105;28;20051;-94
2021/12/23 01:46:00;;;;;;;53.85;24.88;;;;;;;1.38;100.00;99585.75;5135177;28;20046;-95
2021/12/23 01:48:26;;;;;;;56.25;23.00;;;;;;;1.42;100.00;99591.09;5135941;27;20043;-94
2021/12/23 01:50:56;;;;;;;54.08;23.38;;;;;;;1.49;100.00;99592.13;5136306;27;20043;-95
2021/12/23 01:53:26;;;;;;;57.83;24.20;;;;;;;1.62;100.00;99603.75;5135300;28;20047;-93
2021/12/23 01:55:52;;;;;;;52.55;23.90;;;;;;;1.60;100.00;99580.13;5135431;28;20043;-94
2021/12/23 01:58:18;;;;;;;46.55;22.42;;;;;;;1.66;100.00;99578.50;5133889;28;20488;-96
2021/12/23 02:00:48;;;;;;;48.72;21.33;;;;;;;1.63;100.00;99581.97;5135944;28;20103;-95
2021/12/23 02:03:20;;;;;;;49.72;20.75;;;;;;;1.54;100.00;99577.41;5135317;28;20039;-93
2021/12/23 02:05:48;;;;;;;54.80;23.08;;;;;;;1.52;100.00;99566.00;5135669;28;20039;-95
2021/12/23 02:08:14;;;;;;;49.70;22.10;;;;;;;1.50;100.00;99567.69;5135282;27;20592;-95
2021/12/23 02:10:44;;;;;;;51.25;24.13;;;;;;;1.53;100.00;99580.84;5134902;28;20051;-96
2021/12/23 02:13:10;;;;;;;54.88;23.38;;;;;;;1.52;100.00;99584.34;5134685;28;20078;-94
2021/12/23 02:15:36;;;;;;;49.40;22.48;;;;;;;1.47;100.00;99577.22;5133912;28;20044;-95
2021/12/23 02:18:02;;;;;;;54.03;23.20;;;;;;;1.48;100.00;99576.38;5134189;28;20047;-94
2021/12/23 02:20:32;;;;;;;49.38;22.17;;;;;;;1.47;100.00;99585.06;5135511;28;20071;-94
2021/12/23 02:22:58;;;;;;;54.65;22.77;;;;;;;1.32;100.00;99570.75;5135240;27;20507;-95
2021/12/23 02:25:24;;;;;;;50.40;23.92;;;;;;;1.24;100.00;99561.88;5133891;28;20092;-95
2021/12/23 02:27:51;;;;;;;51.42;23.08;;;;;;;1.16;100.00;99560.81;5133611;28;20043;-94
2021/12/23 02:30:22;;;;;;;47.97;22.77;;;;;;;1.18;100.00;99559.97;5119750;28;20055;-93
2021/12/23 02:32:51;;;;;;;55.92;22.65;;;;;;;1.31;100.00;99584.72;5119306;28;20043;-93
2021/12/23 02:35:19;;;;;;;50.42;22.25;;;;;;;1.27;100.00;99587.25;5119742;28;20093;-94
2021/12/23 02:37:47;;;;;;;53.72;23.08;;;;;;;1.09;100.00;99558.91;5119296;28;20036;-94
2021/12/23 02:40:30;;;;;;;55.97;23.65;;;;;;;1.23;100.00;99571.44;5119803;28;20138;-94
2021/12/23 02:42:58;;;;;;;58.45;27.33;;;;;;;1.25;100.00;99574.09;5119743;28;20053;-95
2021/12/23 02:45:24;;;;;;;58.40;25.17;;;;;;;1.31;100.00;99570.75;5119476;28;20039;-94
2021/12/23 02:47:50;;;;;;;55.13;25.92;;;;;;;1.31;100.00;99571.63;5119587;28;20040;-94
2021/12/23 02:50:16;;;;;;;61.58;28.40;;;;;;;1.43;100.00;99577.16;5119157;28;20048;-95
2021/12/23 02:52:42;;;;;;;61.20;26.73;;;;;;;1.50;100.00;99590.41;5118429;28;20482;-95
2021/12/23 02:55:17;;;;;;;66.03;29.38;;;;;;;1.33;100.00;99546.34;5119379;28;20513;-93
2021/12/23 02:57:42;;;;;;;58.00;26.83;;;;;;;1.49;100.00;99579.00;5120189;28;20036;-94
2021/12/23 03:00:11;;;;;;;57.70;26.50;;;;;;;1.33;100.00;99569.06;5119468;28;20040;-95
2021/12/23 03:02:38;;;;;;;79.78;34.22;;;;;;;1.11;100.00;99557.19;5118970;28;20542;-95
2021/12/23 03:05:05;;;;;;;64.90;28.67;;;;;;;1.26;100.00;99583.75;5119224;28;20487;-93
2021/12/23 03:07:31;;;;;;;62.50;27.98;;;;;;;1.25;100.00;99583.72;5118973;28;20067;-93
2021/12/23 03:10:01;;;;;;;74.68;31.00;;;;;;;1.23;100.00;99594.13;5119564;28;20047;-94
2021/12/23 03:12:29;;;;;;;66.35;29.15;;;;;;;1.08;100.00;99568.47;5119987;28;20047;-94
2021/12/23 03:14:55;;;;;;;66.72;29.35;;;;;;;1.15;100.00;99608.78;5119721;28;20049;-94
2021/12/23 03:17:22;;;;;;;69.80;28.60;;;;;;;0.98;100.00;99584.81;5118781;28;20057;-93
2021/12/23 03:19:48;;;;;;;73.30;32.33;;;;;;;0.89;100.00;99579.34;5118593;28;20047;-94
2021/12/23 03:22:14;;;;;;;68.85;28.90;;;;;;;0.94;100.00;99596.94;5118434;28;20048;-95
2021/12/23 03:24:40;;;;;;;80.35;32.45;;;;;;;0.75;100.00;99579.00;5119105;28;20434;-94
2021/12/23 03:27:06;;;;;;;76.20;32.58;;;;;;;0.76;100.00;99604.31;5118296;28;20076;-95
2021/12/23 03:29:34;;;;;;;79.35;33.20;;;;;;;0.43;100.00;99567.72;5118089;28;20477;-95
2021/12/23 03:32:02;;;;;;;75.13;32.55;;;;;;;0.56;100.00;99609.06;5119421;28;20099;-95
2021/12/23 03:34:27;;;;;;;78.05;31.42;;;;;;;0.44;100.00;99580.84;5119003;28;20103;-95
2021/12/23 03:36:54;;;;;;;71.80;31.05;;;;;;;0.40;100.00;99571.13;5118621;28;20056;-96
2021/12/23 03:39:20;;;;;;;84.32;33.58;;;;;;;0.40;100.00;99579.00;5119635;28;20052;-95
2021/12/23 03:41:49;;;;;;;86.03;34.42;;;;;;;0.47;100.00;99580.91;5118262;28;20105;-95
2021/12/23 03:44:15;;;;;;;84.28;34.25;;;;;;;0.53;100.00;99569.72;5098782;28;20496;-94
2021/12/23 03:46:44;;;;;;;84.28;34.40;;;;;;;0.61;100.00;99576.06;5098809;28;20069;-93
2021/12/23 03:49:10;;;;;;;76.97;32.42;;;;;;;0.64;100.00;99580.47;5098966;28;20052;-95
2021/12/23 03:51:36;;;;;;;70.10;29.55;;;;;;;0.60;100.00;99575.16;5097907;28;20148;-95
2021/12/23 03:54:04;;;;;;;70.82;30.60;;;;;;;0.70;100.00;99575.41;5098524;28;20513;-95
2021/12/23 03:56:33;;;;;;;73.13;31.52;;;;;;;0.72;100.00;99581.56;5098660;28;20052;-95
2021/12/23 03:58:59;;;;;;;79.57;33.57;;;;;;;0.68;100.00;99562.28;5099278;28;20486;-93
2021/12/23 04:01:27;;;;;;;75.70;32.15;;;;;;;0.75;100.00;99571.16;5097758;28;20054;-95
2021/12/23 04:03:55;;;;;;;85.93;33.40;;;;;;;0.87;100.00;99591.50;5097776;28;20040;-95
2021/12/23 04:06:22;;;;;;;83.05;35.10;;;;;;;0.77;100.00;99556.38;5097198;28;20040;-94
2021/12/23 04:08:50;;;;;;;86.47;35.60;;;;;;;0.81;100.00;99550.38;5097559;28;20040;-95
2021/12/23 04:11:16;;;;;;;84.15;33.58;;;;;;;0.95;100.00;99574.25;5097925;28;20048;-95
2021/12/23 04:13:42;;;;;;;88.88;37.17;;;;;;;0.82;100.00;99545.19;5098139;28;20052;-96
2021/12/23 04:16:08;;;;;;;89.53;36.05;;;;;;;1.04;100.00;99577.09;5097058;28;20113;-95
2021/12/23 04:18:34;;;;;;;81.72;33.85;;;;;;;1.06;100.00;99570.16;5096843;28;20051;-96
2021/12/23 04:21:02;;;;;;;93.15;37.67;;;;;;;1.19;100.00;99582.72;5097893;28;20132;-93
2021/12/23 04:23:30;;;;;;;85.70;35.58;;;;;;;1.12;100.00;99546.72;5097445;28;20048;-94
2021/12/23 04:25:56;;;;;;;81.55;34.28;;;;;;;1.28;100.00;99555.84;5098695;28;20093;-95
2021/12/23 04:28:23;;;;;;;87.85;36.60;;;;;;;1.45;100.00;99582.41;5098594;28;20517;-94
2021/12/23 04:30:49;;;;;;;80.22;32.65;;;;;;;1.34;100.00;99552.47;5096924;28;20102;-95
2021/12/23 04:33:16;;;;;;;75.85;33.28;;;;;;;1.46;100.00;99567.59;5098387;28;20436;-94
2021/12/23 04:35:42;;;;;;;79.35;34.38;;;;;;;1.55;100.00;99588.75;5100686;28;20040;-94
2021/12/23 04:38:11;;;;;;;74.13;31.88;;;;;;;1.56;100.00;99565.22;5101020;28;20047;-96
2021/12/23 04:40:37;;;;;;;79.75;34.20;;;;;;;1.58;100.00;99563.50;5101764;28;20044;-95
2021/12/23 04:43:06;;;;;;;73.72;34.25;;;;;;;1.64;100.00;99575.84;5101070;28;20032;-93
2021/12/23 04:45:32;;;;;;;71.63;31.15;;;;;;;1.55;100.00;99552.06;5102457;28;20467;-93
2021/12/23 04:47:58;;;;;;;73.88;32.30;;;;;;;1.64;100.00;99570.59;5099639;28;20043;-94
2021/12/23 04:50:24;;;;;;;75.65;32.03;;;;;;;1.67;100.00;99578.56;5098878;28;20047;-93
2021/12/23 04:52:51;;;;;;;73.63;31.65;;;;;;;1.65;100.00;99580.25;5099858;28;20407;-95
2021/12/23 04:55:19;;;;;;;71.20;30.05;;;;;;;1.55;100.00;99547.69;5102286;28;20154;-93
2021/12/23 04:57:45;;;;;;;71.32;31.40;;;;;;;1.60;100.00;99555.66;5101849;28;20039;-94
2021/12/23 05:00:15;;;;;;;64.63;27.88;;;;;;;1.71;100.00;99553.25;5100956;28;20076;-95
2021/12/23 05:02:41;;;;;;;63.58;28.40;;;;;;;1.77;100.00;99571.75;5100923;28;20509;-95
2021/12/23 05:05:08;;;;;;;63.95;31.42;;;;;;;1.64;100.00;99554.88;5101910;28;20044;-94
2021/12/23 05:07:34;;;;;;;61.95;29.17;;;;;;;1.59;100.00;99560.03;5101238;28;20477;-94
2021/12/23 05:10:00;;;;;;;58.72;28.05;;;;;;;1.57;100.00;99552.97;5103929;28;20044;-95
2021/12/23 05:12:29;;;;;;;69.55;28.42;;;;;;;1.71;100.00;99596.09;5103558;28;20055;-95
2021/12/23 05:14:55;;;;;;;59.88;28.33;;;;;;;1.48;100.00;99560.66;5103126;28;20040;-94
2021/12/23 05:17:21;;;;;;;60.85;27.17;;;;;;;1.49;100.00;99562.41;5102001;28;20506;-95
2021/12/23 05:19:49;;;;;;;61.45;28.02;;;;;;;1.44;100.00;99565.81;5103508;28;20100;-94
2021/12/23 05:22:15;;;;;;;60.33;30.15;;;;;;;1.53;100.00;99580.84;5102883;28;20088;-95
2021/12/23 05:24:41;;;;;;;70.80;30.38;;;;;;;1.48;99.81;99555.41;5100944;28;20048;-95
2021/12/23 05:27:09;;;;;;;68.65;29.10;;;;;;;1.54;100.00;99584.34;5101419;28;20048;-95
2021/12/23 05:29:39;;;;;;;67.90;30.98;;;;;;;1.42;100.00;99570.13;5101216;28;20048;-95
2021/12/23 05:32:07;;;;;;;72.00;31.13;;;;;;;1.40;100.00;99565.72;5102330;28;20052;-95
2021/12/23 05:34:33;;;;;;;67.03;29.48;;;;;;;1.37;100.00;99557.78;5102233;28;20044;-96
2021/12/23 05:36:59;;;;;;;67.43;28.67;;;;;;;1.37;100.00;99550.81;5102907;28;20448;-95
2021/12/23 05:39:25;;;;;;;64.63;28.02;;;;;;;1.33;100.00;99559.44;5103268;28;20585;-94
2021/12/23 05:41:53;;;;;;;56.08;26.10;;;;;;;1.47;100.00;99579.84;5102214;28;20040;-95
2021/12/23 05:44:19;;;;;;;55.20;25.38;;;;;;;1.44;100.00;99573.66;5101494;28;20044;-95
2021/12/23 05:46:46;;;;;;;61.53;26.38;;;;;;;1.28;100.00;99552.31;5103358;28;20058;-96
2021/12/23 05:49:13;;;;;;;60.95;26.15;;;;;;;1.26;100.00;99560.16;5106593;28;20100;-96
2021/12/23 05:51:40;;;;;;;57.63;25.67;;;;;;;1.38;100.00;99549.94;5105206;28;20536;-96
2021/12/23 05:54:08;;;;;;;57.63;26.20;;;;;;;1.32;100.00;99548.94;5100469;28;20055;-95
2021/12/23 05:56:34;;;;;;;60.03;27.58;;;;;;;1.33;100.00;99561.19;5101450;28;20044;-95
2021/12/23 05:59:00;;;;;;;60.80;26.83;;;;;;;1.22;100.00;99555.72;5100804;28;20040;-95
2021/12/23 06:01:26;;;;;;;59.08;25.92;;;;;;;1.07;100.00;99557.97;5100751;28;20040;-96
2021/12/23 06:03:54;;;;;;;64.18;27.52;;;;;;;1.21;100.00;99577.50;5101235;28;20052;-95
2021/12/23 06:06:20;;;;;;;59.60;27.38;;;;;;;1.05;100.00;99564.91;5106515;28;20048;-95
2021/12/23 06:08:46;;;;;;;55.40;27.00;;;;;;;0.93;100.00;99545.44;5105504;28;20070;-95
2021/12/23 06:11:12;;;;;;;52.88;25.90;;;;;;;1.00;100.00;99547.34;5104050;28;20044;-94
2021/12/23 06:13:37;;;;;;;61.45;25.67;;;;;;;0.88;100.00;99541.81;5103121;28;20044;-96
2021/12/23 06:16:05;;;;;;;58.85;26.40;;;;;;;0.90;100.00;99549.72;5102500;28;20385;-94
2021/12/23 06:18:33;;;;;;;56.97;25.67;;;;;;;0.94;100.00;99562.91;5105838;28;20056;-96
2021/12/23 06:21:01;;;;;;;60.53;27.45;;;;;;;0.96;100.00;99550.75;5114237;28;20041;-95
2021/12/23 06:23:27;;;;;;;61.88;27.63;;;;;;;0.95;100.00;99559.44;5114783;28;20043;-95
2021/12/23 06:25:54;;;;;;;58.30;27.67;;;;;;;1.07;100.00;99565.84;5113428;28;20059;-95
2021/12/23 06:28:20;;;;;;;75.97;31.70;;;;;;;1.06;100.00;99553.56;5110677;28;20047;-93
2021/12/23 06:30:46;;;;;;;75.80;32.95;;;;;;;1.13;100.00;99558.09;5110223;28;20044;-95
2021/12/23 06:33:12;;;;;;;78.70;34.15;;;;;;;1.06;100.00;99567.53;5105345;28;20048;-95
2021/12/23 06:35:40;;;;;;;60.95;29.10;;;;;;;1.11;100.00;99575.53;5107309;28;20135;-96
2021/12/23 06:38:11;;;;;;;66.60;28.55;;;;;;;1.25;100.00;99563.63;5102706;28;20051;-95
2021/12/23 06:40:38;;;;;;;69.82;28.80;;;;;;;1.40;100.00;99582.31;5104420;28;20126;-95
2021/12/23 06:43:08;;;;;;;69.25;29.67;;;;;;;1.32;100.00;99572.50;5102784;28;20055;-95
2021/12/23 06:45:34;;;;;;;69.20;30.50;;;;;;;1.30;100.00;99569.88;5103186;28;20082;-95
2021/12/23 06:48:00;;;;;;;60.88;26.75;;;;;;;1.37;100.00;99574.41;5102924;28;20041;-95
2021/12/23 06:50:26;;;;;;;62.70;27.50;;;;;;;1.35;100.00;99578.72;5103119;28;20134;-95
2021/12/23 06:52:53;;;;;;;65.97;28.08;;;;;;;1.42;100.00;99580.63;5102465;28;20052;-93
2021/12/23 06:55:20;;;;;;;74.60;29.05;;;;;;;1.47;100.00;99569.34;5102371;28;20052;-95
2021/12/23 06:57:52;;;;;;;70.75;30.27;;;;;;;1.54;100.00;99577.41;5102995;28;20096;-95
2021/12/23 07:00:22;;;;;;;68.68;29.63;;;;;;;1.50;100.00;99578.19;5108636;28;20048;-95
2021/12/23 07:02:49;;;;;;;67.97;29.83;;;;;;;1.54;100.00;99580.03;5106856;28;20077;-96
2021/12/23 07:05:15;;;;;;;70.75;29.38;;;;;;;1.63;100.00;99574.97;5103916;28;20048;-95
2021/12/23 07:10:45;;;;;;;58.80;28.38;;;;;;;1.67;100.00;99570.69;5182905;27;20822;-95
2021/12/23 07:13:58;;;;;;;63.53;27.02;;;;;;;1.81;100.00;99592.81;5182803;27;20050;-94
2021/12/23 07:17:22;;;;;;;55.05;24.92;;;;;;;1.64;100.00;99575.84;5181925;27;20134;-94
2021/12/23 07:19:59;;;;;;;52.70;24.00;;;;;;;1.74;100.00;99566.47;5181657;27;20549;-94
2021/12/23 07:22:49;;;;;;;71.18;25.80;;;;;;;1.76;100.00;99557.75;5180799;27;20067;-94
2021/12/23 07:25:16;;;;;;;56.90;25.05;;;;;;;1.87;99.16;99575.47;5181864;27;20054;-96
2021/12/23 07:28:27;;;;;;;48.80;21.75;;;;;;;1.89;99.51;99587.75;5180485;27;20038;-94
2021/12/23 07:32:06;;;;;;;;;;;;;;;;;;;;;
2021/12/23 07:35:12;;;;;;;39.83;19.10;;;;;;;1.56;99.82;99552.09;5112095;28;20538;-96
2021/12/23 07:38:16;;;;;;;43.65;20.33;;;;;;;1.72;100.00;99591.75;5136631;28;20043;-95
2021/12/23 07:40:59;;;;;;;45.25;19.75;;;;;;;1.60;100.00;99561.78;5138058;28;20043;-95
2021/12/23 07:46:26;;;;;;;50.55;21.25;;;;;;;1.60;100.00;99589.72;5098916;27;20125;-94
2021/12/23 07:48:56;;;;;;;78.97;34.42;;;;;;;1.61;100.00;99586.28;5097968;28;20048;-95
2021/12/23 07:51:57;;;;;;;99.28;46.17;;;;;;;1.60;100.00;99594.97;5087578;28;20045;-95
2021/12/23 07:54:23;;;;;;;65.82;28.98;;;;;;;1.67;100.00;99590.75;5101503;28;20104;-96
2021/12/23 07:56:50;;;;;;;86.57;36.63;;;;;;;1.80;100.00;99587.53;5098890;28;20076;-94
2021/12/23 07:59:16;;;;;;;88.75;35.83;;;;;;;1.96;100.00;99592.25;5098425;28;20064;-95
2021/12/23 08:01:48;;;;;;;86.30;36.13;;;;;;;2.11;99.95;99581.19;5098628;28;20075;-93
2021/12/23 08:04:17;;;;;;;80.88;37.10;;;;;;;2.23;97.90;99610.31;5098352;28;20047;-93
2021/12/23 08:06:43;;;;;;;73.70;36.38;;;;;;;2.22;98.47;99579.66;5097603;28;20044;-94
2021/12/23 08:09:09;;;;;;;70.70;33.53;;;;;;;2.37;97.28;99576.44;5098415;28;20045;-94
2021/12/23 08:11:35;;;;;;;71.82;33.00;;;;;;;2.57;96.95;99579.44;5098623;28;20132;-94
2021/12/23 08:14:01;;;;;;;79.85;32.63;;;;;;;2.66;96.53;99576.09;5097289;28;20506;-96
2021/12/23 08:16:26;;;;;;;73.65;33.33;;;;;;;2.73;96.17;99556.94;5096638;28;20101;-93
2021/12/23 08:18:54;;;;;;;82.20;35.42;;;;;;;2.88;95.90;99556.31;5095175;28;20052;-93
2021/12/23 08:21:22;;;;;;;90.20;37.50;;;;;;;3.03;94.72;99564.44;5094091;28;20397;-94
2021/12/23 08:23:48;;;;;;;86.78;37.13;;;;;;;3.13;93.82;99557.59;5093257;28;20529;-96
2021/12/23 08:26:16;;;;;;;89.50;39.30;;;;;;;3.32;92.97;99569.28;5094525;28;20045;-94
2021/12/23 08:28:43;;;;;;;79.23;34.53;;;;;;;3.46;92.66;99585.25;5095268;28;20108;-94
2021/12/23 08:31:09;;;;;;;62.90;29.42;;;;;;;3.67;90.98;99588.19;5096481;28;20049;-94
2021/12/23 08:33:35;;;;;;;55.38;26.67;;;;;;;3.85;90.29;99597.19;5095315;28;20494;-96
2021/12/23 08:36:03;;;;;;;54.53;26.88;;;;;;;3.91;90.28;99582.38;5095506;28;20040;-94
2021/12/23 08:38:28;;;;;;;52.60;24.25;;;;;;;4.17;89.25;99592.34;5093145;28;20055;-94
2021/12/23 08:40:56;;;;;;;51.50;25.30;;;;;;;4.41;86.92;99604.91;5093469;28;20044;-93
2021/12/23 08:43:22;;;;;;;54.28;25.13;;;;;;;4.57;87.44;99615.59;5094175;28;20044;-95
2021/12/23 08:45:49;;;;;;;49.17;25.05;;;;;;;4.45;85.87;99588.28;5094208;28;20056;-93
2021/12/23 08:48:14;;;;;;;52.50;24.75;;;;;;;4.39;86.47;99569.75;5094096;28;20040;-94
2021/12/23 08:50:40;;;;;;;50.15;22.83;;;;;;;4.36;85.04;99563.56;5093795;28;20041;-94
2021/12/23 08:53:08;;;;;;;39.83;20.33;;;;;;;4.45;85.60;99584.75;5093983;28;20448;-96
2021/12/23 08:55:35;;;;;;;38.72;19.80;;;;;;;4.28;87.98;99592.47;5094694;28;20170;-93
2021/12/23 08:58:04;;;;;;;42.38;20.98;;;;;;;3.73;89.90;99566.38;5081290;28;20040;-94
2021/12/23 09:00:31;;;;;;;45.00;21.63;;;;;;;3.65;91.04;99586.41;5081169;28;20040;-93
2021/12/23 09:02:57;;;;;;;42.97;19.80;;;;;;;3.46;91.61;99577.38;5081224;28;20045;-95
2021/12/23 09:05:24;;;;;;;43.25;20.13;;;;;;;3.35;91.99;99571.06;5081986;28;20048;-94
2021/12/23 09:07:50;;;;;;;45.83;21.33;;;;;;;3.50;90.81;99574.81;5080633;28;20040;-91
2021/12/23 09:10:18;;;;;;;51.97;21.80;;;;;;;3.66;92.25;99598.69;5081421;28;20070;-95
2021/12/23 09:12:45;;;;;;;52.25;25.10;;;;;;;3.65;93.50;99586.41;5080360;28;20056;-94
2021/12/23 09:15:11;;;;;;;49.70;24.08;;;;;;;3.79;93.84;99586.59;5078470;28;20052;-95
2021/12/23 09:17:37;;;;;;;57.78;25.27;;;;;;;3.93;93.79;99586.78;5077995;28;20122;-95
2021/12/23 09:20:06;;;;;;;55.65;25.80;;;;;;;3.98;92.60;99585.09;5079149;28;20080;-94
2021/12/23 09:22:32;;;;;;;46.95;22.20;;;;;;;3.99;90.67;99568.41;5080797;28;20064;-93
2021/12/23 09:25:03;;;;;;;40.47;20.65;;;;;;;4.05;90.62;99584.28;5080850;28;20131;-94
2021/12/23 09:27:37;;;;;;;51.92;24.00;;;;;;;3.84;92.01;99577.03;5080931;28;20037;-94
2021/12/23 09:33:04;;;;;;;44.75;23.73;;;;;;;3.66;92.88;99578.53;5149219;27;1411871;-93
2021/12/23 09:35:32;;;;;;;53.75;22.20;;;;;;;3.91;92.11;99589.38;5176650;27;20050;-93
2021/12/23 09:37:59;;;;;;;43.43;20.87;;;;;;;3.89;92.10;99562.16;5176305;27;20365;-94
2021/12/23 09:40:29;;;;;;;47.08;22.45;;;;;;;4.10;92.01;99553.66;5175439;27;20046;-95
2021/12/23 09:42:58;;;;;;;66.95;30.13;;;;;;;4.56;91.77;99585.75;5175319;27;20399;-93
2021/12/23 09:45:24;;;;;;;54.90;25.10;;;;;;;4.69;90.51;99578.84;5175710;27;20487;-94
2021/12/23 09:47:50;;;;;;;52.42;25.15;;;;;;;4.65;88.56;99541.03;5175226;27;20141;-93
2021/12/23 09:50:20;;;;;;;51.13;25.63;;;;;;;4.76;88.62;99550.81;5174834;27;20038;-93
2021/12/23 09:52:48;;;;;;;47.13;24.65;;;;;;;4.78;88.37;99543.81;5175705;27;20472;-94
2021/12/23 09:55:18;;;;;;;50.77;24.53;;;;;;;5.07;87.89;99580.94;5175172;27;20399;-92
2021/12/23 09:57:45;;;;;;;54.67;25.63;;;;;;;5.00;86.91;99565.94;5175272;27;20038;-93
2021/12/23 10:00:13;;;;;;;54.53;26.85;;;;;;;4.99;87.35;99550.97;5174921;27;20068;-94
2021/12/23 10:02:41;;;;;;;50.95;24.95;;;;;;;5.11;86.43;99551.97;5175087;27;20041;-94
2021/12/23 10:05:10;;;;;;;53.17;26.35;;;;;;;5.12;86.44;99560.78;5174694;27;20039;-94
2021/12/23 10:07:39;;;;;;;50.63;25.23;;;;;;;5.27;86.03;99550.34;5175308;27;20049;-94
2021/12/23 10:31:29;;;;;;;59.60;27.98;;;;;;;6.27;81.28;99526.19;5073945;27;20387;-94
2021/12/23 10:47:39;;;;;;;58.67;24.60;;;;;;;6.02;82.21;99525.22;5047193;27;1358253;-94
2021/12/23 10:50:19;;;;;;;54.75;26.23;;;;;;;5.95;82.93;99517.28;5074078;28;20269;-93
2021/12/23 10:52:56;;;;;;;52.45;27.27;;;;;;;5.99;82.00;99519.97;5073722;28;20094;-94
2021/12/23 10:58:15;;;;;;;50.58;26.02;;;;;;;5.84;83.39;99503.13;5113618;27;20381;-93
2021/12/23 11:00:44;;;;;;;59.15;26.35;;;;;;;5.98;83.83;99505.84;5114677;28;20044;-93
2021/12/23 11:09:42;;;;;;;58.65;25.92;;;;;;;5.91;83.17;99504.91;5113840;27;19923;-94
2021/12/23 11:45:53;;;;;;;59.10;29.23;;;;;;;5.30;86.04;99441.34;5126742;27;20179;-95
2021/12/23 11:48:19;;;;;;;;;;;;;;;5.43;87.41;99466.03;5093875;28;20063;-94
2021/12/23 11:53:51;;;;;;;58.95;30.42;;;;;;;5.39;86.76;99451.94;5075032;27;20395;-95
2021/12/23 11:56:21;;;;;;;60.03;29.67;;;;;;;5.29;86.92;99442.19;5074534;28;20397;-94
2021/12/23 11:58:48;;;;;;;;;;;;;;;5.39;88.70;99457.22;5078742;28;20109;-94
2021/12/23 12:01:22;;;;;;;74.10;34.47;;;;;;;5.44;88.98;99451.94;5074372;28;19955;-92
2021/12/23 12:03:55;;;;;;;71.22;34.42;;;;;;;5.47;89.22;99444.94;5074477;28;20043;-94
2021/12/23 12:06:25;;;;;;;72.13;36.25;;;;;;;5.47;89.50;99450.22;5074903;28;20380;-94
2021/12/23 12:08:56;;;;;;;69.03;35.15;;;;;;;5.43;90.29;99424.69;5074056;28;20131;-94
2021/12/23 12:11:24;;;;;;;64.35;33.03;;;;;;;5.43;90.17;99434.38;5073830;28;20123;-94
2021/12/23 12:13:51;;;;;;;64.27;32.33;;;;;;;5.44;90.66;99433.50;5072946;28;20107;-95
2021/12/23 12:16:36;;;;;;;80.70;36.05;;;;;;;5.44;91.55;99430.84;5073736;28;20285;-94
2021/12/23 12:19:10;;;;;;;72.65;35.78;;;;;;;5.37;92.14;99408.84;5072205;28;20071;-94
2021/12/23 12:21:41;;;;;;;80.40;36.38;;;;;;;5.46;91.99;99424.69;5072465;28;20071;-94
2021/12/23 12:24:16;;;;;;;77.00;36.65;;;;;;;5.38;92.56;99404.44;5074587;28;20485;-93
2021/12/23 12:26:54;;;;;;;78.05;36.33;;;;;;;5.46;92.71;99423.81;5073490;28;20045;-92
2021/12/23 12:29:26;;;;;;;89.55;41.85;;;;;;;5.38;92.61;99415.00;5073340;28;20044;-94
2021/12/23 12:31:52;;;;;;;74.50;36.42;;;;;;;5.38;92.30;99407.09;5074495;28;20040;-94
2021/12/23 12:34:19;;;;;;;79.03;37.30;;;;;;;5.49;93.05;99437.03;5073394;28;20390;-94
2021/12/23 12:36:49;;;;;;;79.75;40.28;;;;;;;5.37;93.27;99402.69;5071634;28;20052;-93
2021/12/23 12:39:24;;;;;;;84.13;40.00;;;;;;;5.47;93.79;99408.00;5072924;28;20079;-92
2021/12/23 12:41:59;;;;;;;71.05;33.63;;;;;;;5.48;93.77;99401.84;5074302;28;20384;-96
2021/12/23 12:44:44;;;;;;;71.80;32.92;;;;;;;5.51;94.00;99396.59;5073448;28;20136;-95
2021/12/23 12:47:23;;;;;;;66.72;34.67;;;;;;;5.54;94.12;99396.59;5078119;28;20055;-95
2021/12/23 12:49:50;;;;;;;;;;;;;;;5.76;94.55;99425.69;5077411;28;20048;-96
2021/12/23 12:52:22;;;;;;;72.07;38.10;;;;;;;5.62;93.71;99422.16;5075792;28;19955;-95
2021/12/23 12:54:59;;;;;;;99.68;48.63;;;;;;;5.41;94.62;99407.97;5073837;28;20047;-95
2021/12/23 12:57:31;;;;;;;83.15;40.63;;;;;;;5.28;96.08;99407.06;5073055;28;20175;-93
2021/12/23 13:00:13;;;;;;;84.13;41.90;;;;;;;5.25;97.33;99401.78;5074321;28;20568;-95
2021/12/23 13:02:39;;;;;;;81.65;43.53;;;;;;;5.15;97.86;99386.78;5073531;28;20051;-95
2021/12/23 13:05:08;;;;;;;83.57;42.58;;;;;;;5.20;98.41;99418.44;5056911;28;20175;-94
2021/12/23 13:07:36;;;;;;;89.10;42.20;;;;;;;5.10;99.56;99405.22;5057527;28;20051;-95
2021/12/23 13:10:13;;;;;;;89.03;41.30;;;;;;;5.23;99.42;99419.34;5057837;28;20040;-94
2021/12/23 13:12:44;;;;;;;;;;;;;;;5.45;99.75;99435.25;5058927;28;20041;-95
2021/12/23 13:18:19;;;;;;;89.20;43.75;;;;;;;5.60;99.93;99402.78;5135631;27;20693;-94
2021/12/23 13:20:51;;;;;;;90.80;42.20;;;;;;;5.66;99.41;99408.06;5136499;27;20104;-95